sensor_id;sensor_type;location;lat;lon;timestamp;P1;durP1;ratioP1;P2;durP2;ratioP2
70420;SDS011;57848;51.938;15.520;2023-03-01T00:02:03;25.27;;;9.57;;
70420;SDS011;57848;51.938;15.520;2023-03-01T00:04:29;23.90;;;10.37;;
70420;SDS011;57848;51.938;15.520;2023-03-01T00:06:55;23.42;;;10.35;;
70420;SDS011;57848;51.938;15.520;2023-03-01T00:09:21;23.05;;;9.85;;
70420;SDS011;57848;51.938;15.520;2023-03-01T00:11:47;31.00;;;11.27;;
70420;SDS011;57848;51.938;15.520;2023-03-01T00:14:13;28.10;;;10.77;;
70420;SDS011;57848;51.938;15.520;2023-03-01T00:16:41;30.10;;;11.60;;
70420;SDS011;57848;51.938;15.520;2023-03-01T00:19:09;29.95;;;11.50;;
70420;SDS011;57848;51.938;15.520;2023-03-01T00:21:37;27.33;;;11.30;;
70420;SDS011;57848;51.938;15.520;2023-03-01T00:24:03;25.00;;;10.50;;
70420;SDS011;57848;51.938;15.520;2023-03-01T00:26:28;30.98;;;12.13;;
70420;SDS011;57848;51.938;15.520;2023-03-01T00:28:54;27.77;;;11.60;;
70420;SDS011;57848;51.938;15.520;2023-03-01T00:31:23;22.27;;;10.52;;
70420;SDS011;57848;51.938;15.520;2023-03-01T00:33:55;30.30;;;11.90;;
70420;SDS011;57848;51.938;15.520;2023-03-01T00:36:22;31.33;;;10.98;;
70420;SDS011;57848;51.938;15.520;2023-03-01T00:38:49;28.10;;;11.80;;
70420;SDS011;57848;51.938;15.520;2023-03-01T00:41:15;40.30;;;12.93;;
70420;SDS011;57848;51.938;15.520;2023-03-01T00:43:42;25.40;;;10.23;;
70420;SDS011;57848;51.938;15.520;2023-03-01T00:46:09;26.67;;;11.07;;
70420;SDS011;57848;51.938;15.520;2023-03-01T00:48:39;25.88;;;11.20;;
70420;SDS011;57848;51.938;15.520;2023-03-01T00:51:09;27.27;;;10.80;;
70420;SDS011;57848;51.938;15.520;2023-03-01T00:53:39;27.80;;;10.63;;
70420;SDS011;57848;51.938;15.520;2023-03-01T00:56:05;27.47;;;10.83;;
70420;SDS011;57848;51.938;15.520;2023-03-01T00:58:32;29.73;;;11.68;;
70420;SDS011;57848;51.938;15.520;2023-03-01T01:00:58;31.90;;;10.57;;
70420;SDS011;57848;51.938;15.520;2023-03-01T01:03:24;28.77;;;11.73;;
70420;SDS011;57848;51.938;15.520;2023-03-01T01:05:53;30.15;;;10.05;;
70420;SDS011;57848;51.938;15.520;2023-03-01T01:08:19;21.92;;;9.88;;
70420;SDS011;57848;51.938;15.520;2023-03-01T01:10:45;25.03;;;11.97;;
70420;SDS011;57848;51.938;15.520;2023-03-01T01:13:12;25.88;;;10.23;;
70420;SDS011;57848;51.938;15.520;2023-03-01T01:15:38;25.52;;;10.82;;
70420;SDS011;57848;51.938;15.520;2023-03-01T01:18:03;30.57;;;13.70;;
70420;SDS011;57848;51.938;15.520;2023-03-01T01:20:28;29.90;;;11.07;;
70420;SDS011;57848;51.938;15.520;2023-03-01T01:22:54;26.38;;;11.15;;
70420;SDS011;57848;51.938;15.520;2023-03-01T01:25:19;26.80;;;11.37;;
70420;SDS011;57848;51.938;15.520;2023-03-01T01:27:45;28.67;;;11.50;;
70420;SDS011;57848;51.938;15.520;2023-03-01T01:30:11;26.92;;;11.25;;
70420;SDS011;57848;51.938;15.520;2023-03-01T01:32:37;27.97;;;11.07;;
70420;SDS011;57848;51.938;15.520;2023-03-01T01:35:02;25.05;;;10.30;;
70420;SDS011;57848;51.938;15.520;2023-03-01T01:37:28;28.17;;;10.80;;
70420;SDS011;57848;51.938;15.520;2023-03-01T01:39:58;26.48;;;10.77;;
70420;SDS011;57848;51.938;15.520;2023-03-01T01:42:24;24.92;;;11.25;;
70420;SDS011;57848;51.938;15.520;2023-03-01T01:45:15;27.10;;;10.97;;
70420;SDS011;57848;51.938;15.520;2023-03-01T01:48:02;25.20;;;10.80;;
70420;SDS011;57848;51.938;15.520;2023-03-01T01:50:32;26.67;;;11.32;;
70420;SDS011;57848;51.938;15.520;2023-03-01T01:53:10;26.38;;;11.23;;
70420;SDS011;57848;51.938;15.520;2023-03-01T01:55:43;21.20;;;9.40;;
70420;SDS011;57848;51.938;15.520;2023-03-01T01:58:13;24.53;;;9.03;;
70420;SDS011;57848;51.938;15.520;2023-03-01T02:00:42;28.95;;;9.90;;
70420;SDS011;57848;51.938;15.520;2023-03-01T02:03:12;23.85;;;9.52;;
70420;SDS011;57848;51.938;15.520;2023-03-01T02:05:45;24.60;;;9.70;;
70420;SDS011;57848;51.938;15.520;2023-03-01T02:08:16;28.60;;;11.18;;
70420;SDS011;57848;51.938;15.520;2023-03-01T02:10:43;26.43;;;10.83;;
70420;SDS011;57848;51.938;15.520;2023-03-01T02:13:10;30.23;;;11.10;;
70420;SDS011;57848;51.938;15.520;2023-03-01T02:15:36;27.20;;;11.47;;
70420;SDS011;57848;51.938;15.520;2023-03-01T02:18:03;34.80;;;13.30;;
70420;SDS011;57848;51.938;15.520;2023-03-01T02:23:13;32.33;;;13.30;;
70420;SDS011;57848;51.938;15.520;2023-03-01T02:31:03;27.02;;;10.98;;
70420;SDS011;57848;51.938;15.520;2023-03-01T02:33:49;30.02;;;12.35;;
70420;SDS011;57848;51.938;15.520;2023-03-01T02:36:16;29.00;;;11.80;;
70420;SDS011;57848;51.938;15.520;2023-03-01T02:38:45;35.38;;;12.15;;
70420;SDS011;57848;51.938;15.520;2023-03-01T02:41:13;23.52;;;11.35;;
70420;SDS011;57848;51.938;15.520;2023-03-01T02:43:41;32.50;;;12.48;;
70420;SDS011;57848;51.938;15.520;2023-03-01T02:46:08;30.27;;;13.67;;
70420;SDS011;57848;51.938;15.520;2023-03-01T02:48:41;27.83;;;11.55;;
70420;SDS011;57848;51.938;15.520;2023-03-01T02:51:20;30.80;;;11.70;;
70420;SDS011;57848;51.938;15.520;2023-03-01T02:54:12;32.25;;;13.25;;
70420;SDS011;57848;51.938;15.520;2023-03-01T02:56:33;33.23;;;13.47;;
70420;SDS011;57848;51.938;15.520;2023-03-01T02:59:00;35.22;;;14.85;;
70420;SDS011;57848;51.938;15.520;2023-03-01T03:01:27;36.42;;;14.80;;
70420;SDS011;57848;51.938;15.520;2023-03-01T03:04:06;36.20;;;15.48;;
70420;SDS011;57848;51.938;15.520;2023-03-01T03:06:35;37.53;;;14.95;;
70420;SDS011;57848;51.938;15.520;2023-03-01T03:09:01;42.10;;;15.77;;
70420;SDS011;57848;51.938;15.520;2023-03-01T03:11:26;40.08;;;16.38;;
70420;SDS011;57848;51.938;15.520;2023-03-01T03:13:53;39.15;;;16.08;;
70420;SDS011;57848;51.938;15.520;2023-03-01T03:16:19;33.23;;;16.27;;
70420;SDS011;57848;51.938;15.520;2023-03-01T03:18:45;38.58;;;16.17;;
70420;SDS011;57848;51.938;15.520;2023-03-01T03:21:11;35.73;;;15.57;;
70420;SDS011;57848;51.938;15.520;2023-03-01T03:23:37;43.20;;;17.58;;
70420;SDS011;57848;51.938;15.520;2023-03-01T03:26:04;39.53;;;17.58;;
70420;SDS011;57848;51.938;15.520;2023-03-01T03:28:30;47.57;;;20.67;;
70420;SDS011;57848;51.938;15.520;2023-03-01T03:30:57;38.58;;;18.25;;
70420;SDS011;57848;51.938;15.520;2023-03-01T03:33:23;52.10;;;19.52;;
70420;SDS011;57848;51.938;15.520;2023-03-01T03:35:49;47.42;;;19.75;;
70420;SDS011;57848;51.938;15.520;2023-03-01T03:38:16;44.40;;;19.03;;
70420;SDS011;57848;51.938;15.520;2023-03-01T03:40:51;47.63;;;19.05;;
70420;SDS011;57848;51.938;15.520;2023-03-01T03:43:28;41.17;;;18.45;;
70420;SDS011;57848;51.938;15.520;2023-03-01T03:45:55;45.00;;;19.42;;
70420;SDS011;57848;51.938;15.520;2023-03-01T03:48:22;43.17;;;18.38;;
70420;SDS011;57848;51.938;15.520;2023-03-01T03:50:52;39.73;;;17.93;;
70420;SDS011;57848;51.938;15.520;2023-03-01T03:53:20;37.90;;;16.20;;
70420;SDS011;57848;51.938;15.520;2023-03-01T03:55:46;39.25;;;17.60;;
70420;SDS011;57848;51.938;15.520;2023-03-01T03:58:14;37.00;;;16.33;;
70420;SDS011;57848;51.938;15.520;2023-03-01T04:00:42;37.45;;;17.02;;
70420;SDS011;57848;51.938;15.520;2023-03-01T04:03:09;36.87;;;16.33;;
70420;SDS011;57848;51.938;15.520;2023-03-01T04:05:37;39.40;;;16.38;;
70420;SDS011;57848;51.938;15.520;2023-03-01T04:08:03;37.30;;;16.52;;
70420;SDS011;57848;51.938;15.520;2023-03-01T04:10:45;35.00;;;15.02;;
70420;SDS011;57848;51.938;15.520;2023-03-01T04:13:13;38.58;;;16.70;;
70420;SDS011;57848;51.938;15.520;2023-03-01T04:15:40;42.93;;;16.00;;
70420;SDS011;57848;51.938;15.520;2023-03-01T04:18:08;39.33;;;17.27;;
70420;SDS011;57848;51.938;15.520;2023-03-01T04:20:35;42.22;;;17.95;;
70420;SDS011;57848;51.938;15.520;2023-03-01T04:23:02;46.70;;;17.52;;
70420;SDS011;57848;51.938;15.520;2023-03-01T04:25:54;40.67;;;17.33;;
70420;SDS011;57848;51.938;15.520;2023-03-01T04:31:20;37.75;;;15.93;;
70420;SDS011;57848;51.938;15.520;2023-03-01T04:33:52;36.80;;;15.10;;
70420;SDS011;57848;51.938;15.520;2023-03-01T04:36:22;38.70;;;14.23;;
70420;SDS011;57848;51.938;15.520;2023-03-01T04:38:49;35.13;;;15.30;;
70420;SDS011;57848;51.938;15.520;2023-03-01T04:41:16;30.00;;;14.55;;
70420;SDS011;57848;51.938;15.520;2023-03-01T04:43:44;36.83;;;14.73;;
70420;SDS011;57848;51.938;15.520;2023-03-01T04:46:15;32.17;;;14.37;;
70420;SDS011;57848;51.938;15.520;2023-03-01T04:48:42;31.70;;;13.70;;
70420;SDS011;57848;51.938;15.520;2023-03-01T04:51:09;33.80;;;14.30;;
70420;SDS011;57848;51.938;15.520;2023-03-01T04:53:38;30.75;;;13.75;;
70420;SDS011;57848;51.938;15.520;2023-03-01T04:56:04;32.58;;;13.40;;
70420;SDS011;57848;51.938;15.520;2023-03-01T04:58:30;30.03;;;12.50;;
70420;SDS011;57848;51.938;15.520;2023-03-01T05:00:55;31.67;;;13.70;;
70420;SDS011;57848;51.938;15.520;2023-03-01T05:03:21;34.90;;;12.85;;
70420;SDS011;57848;51.938;15.520;2023-03-01T05:05:48;33.40;;;14.45;;
70420;SDS011;57848;51.938;15.520;2023-03-01T05:08:14;28.60;;;12.63;;
70420;SDS011;57848;51.938;15.520;2023-03-01T05:10:48;29.23;;;11.52;;
70420;SDS011;57848;51.938;15.520;2023-03-01T05:13:18;24.92;;;10.68;;
70420;SDS011;57848;51.938;15.520;2023-03-01T05:15:48;29.73;;;11.50;;
70420;SDS011;57848;51.938;15.520;2023-03-01T05:18:19;26.08;;;11.80;;
70420;SDS011;57848;51.938;15.520;2023-03-01T05:20:44;27.57;;;10.57;;
70420;SDS011;57848;51.938;15.520;2023-03-01T05:23:09;26.20;;;11.03;;
70420;SDS011;57848;51.938;15.520;2023-03-01T05:25:35;27.47;;;10.10;;
70420;SDS011;57848;51.938;15.520;2023-03-01T05:28:05;26.95;;;11.45;;
70420;SDS011;57848;51.938;15.520;2023-03-01T05:30:35;28.20;;;11.00;;
70420;SDS011;57848;51.938;15.520;2023-03-01T05:33:01;29.35;;;11.18;;
70420;SDS011;57848;51.938;15.520;2023-03-01T05:35:26;27.10;;;10.83;;
70420;SDS011;57848;51.938;15.520;2023-03-01T05:37:52;30.10;;;10.63;;
70420;SDS011;57848;51.938;15.520;2023-03-01T05:40:19;26.00;;;10.50;;
70420;SDS011;57848;51.938;15.520;2023-03-01T05:42:51;24.95;;;10.38;;
70420;SDS011;57848;51.938;15.520;2023-03-01T05:45:22;28.05;;;11.27;;
70420;SDS011;57848;51.938;15.520;2023-03-01T05:47:49;34.10;;;11.38;;
70420;SDS011;57848;51.938;15.520;2023-03-01T05:50:19;31.33;;;12.63;;
70420;SDS011;57848;51.938;15.520;2023-03-01T05:52:51;32.77;;;12.23;;
70420;SDS011;57848;51.938;15.520;2023-03-01T05:55:28;29.50;;;12.45;;
70420;SDS011;57848;51.938;15.520;2023-03-01T05:57:55;27.23;;;12.48;;
70420;SDS011;57848;51.938;15.520;2023-03-01T06:00:23;26.80;;;11.45;;
70420;SDS011;57848;51.938;15.520;2023-03-01T06:02:49;28.37;;;11.60;;
70420;SDS011;57848;51.938;15.520;2023-03-01T06:05:14;29.10;;;12.02;;
70420;SDS011;57848;51.938;15.520;2023-03-01T06:07:40;27.77;;;10.30;;
70420;SDS011;57848;51.938;15.520;2023-03-01T06:10:06;21.48;;;10.20;;
70420;SDS011;57848;51.938;15.520;2023-03-01T06:12:33;21.83;;;9.60;;
70420;SDS011;57848;51.938;15.520;2023-03-01T06:15:00;29.47;;;11.20;;
70420;SDS011;57848;51.938;15.520;2023-03-01T06:17:26;26.15;;;11.40;;
70420;SDS011;57848;51.938;15.520;2023-03-01T06:19:53;28.00;;;10.45;;
70420;SDS011;57848;51.938;15.520;2023-03-01T06:22:19;27.83;;;12.07;;
70420;SDS011;57848;51.938;15.520;2023-03-01T06:24:44;25.53;;;10.47;;
70420;SDS011;57848;51.938;15.520;2023-03-01T06:27:09;27.73;;;11.30;;
70420;SDS011;57848;51.938;15.520;2023-03-01T06:29:35;27.95;;;11.45;;
70420;SDS011;57848;51.938;15.520;2023-03-01T06:32:00;38.60;;;14.27;;
70420;SDS011;57848;51.938;15.520;2023-03-01T06:34:26;54.83;;;18.00;;
70420;SDS011;57848;51.938;15.520;2023-03-01T06:36:52;48.43;;;17.20;;
70420;SDS011;57848;51.938;15.520;2023-03-01T06:39:17;58.10;;;21.53;;
70420;SDS011;57848;51.938;15.520;2023-03-01T06:41:44;60.35;;;22.00;;
70420;SDS011;57848;51.938;15.520;2023-03-01T06:44:10;58.58;;;21.92;;
70420;SDS011;57848;51.938;15.520;2023-03-01T06:46:35;62.53;;;23.93;;
70420;SDS011;57848;51.938;15.520;2023-03-01T06:49:01;83.80;;;29.63;;
70420;SDS011;57848;51.938;15.520;2023-03-01T06:51:29;55.85;;;20.83;;
70420;SDS011;57848;51.938;15.520;2023-03-01T06:53:55;38.53;;;16.77;;
70420;SDS011;57848;51.938;15.520;2023-03-01T06:56:20;42.73;;;17.07;;
70420;SDS011;57848;51.938;15.520;2023-03-01T06:58:46;36.67;;;15.93;;
70420;SDS011;57848;51.938;15.520;2023-03-01T07:01:11;33.80;;;15.13;;
70420;SDS011;57848;51.938;15.520;2023-03-01T07:03:36;38.13;;;18.23;;
70420;SDS011;57848;51.938;15.520;2023-03-01T07:06:02;43.85;;;17.80;;
70420;SDS011;57848;51.938;15.520;2023-03-01T07:08:27;37.93;;;15.13;;
70420;SDS011;57848;51.938;15.520;2023-03-01T07:10:56;36.53;;;14.90;;
70420;SDS011;57848;51.938;15.520;2023-03-01T07:13:27;30.70;;;14.07;;
70420;SDS011;57848;51.938;15.520;2023-03-01T07:15:52;29.33;;;14.65;;
70420;SDS011;57848;51.938;15.520;2023-03-01T07:18:18;32.50;;;15.30;;
70420;SDS011;57848;51.938;15.520;2023-03-01T07:20:43;34.00;;;15.97;;
70420;SDS011;57848;51.938;15.520;2023-03-01T07:23:08;30.23;;;14.53;;
70420;SDS011;57848;51.938;15.520;2023-03-01T07:25:34;33.90;;;14.60;;
70420;SDS011;57848;51.938;15.520;2023-03-01T07:27:59;35.13;;;15.13;;
70420;SDS011;57848;51.938;15.520;2023-03-01T07:30:25;34.33;;;14.13;;
70420;SDS011;57848;51.938;15.520;2023-03-01T07:32:53;35.78;;;12.93;;
70420;SDS011;57848;51.938;15.520;2023-03-01T07:35:20;37.30;;;13.98;;
70420;SDS011;57848;51.938;15.520;2023-03-01T07:37:46;34.35;;;14.05;;
70420;SDS011;57848;51.938;15.520;2023-03-01T07:40:11;30.20;;;12.87;;
70420;SDS011;57848;51.938;15.520;2023-03-01T07:42:37;32.58;;;14.95;;
70420;SDS011;57848;51.938;15.520;2023-03-01T07:45:03;31.57;;;13.17;;
70420;SDS011;57848;51.938;15.520;2023-03-01T07:47:30;32.92;;;12.35;;
70420;SDS011;57848;51.938;15.520;2023-03-01T07:49:55;41.33;;;19.60;;
70420;SDS011;57848;51.938;15.520;2023-03-01T07:52:21;31.70;;;15.30;;
70420;SDS011;57848;51.938;15.520;2023-03-01T07:54:46;30.35;;;13.77;;
70420;SDS011;57848;51.938;15.520;2023-03-01T07:57:11;32.13;;;12.43;;
70420;SDS011;57848;51.938;15.520;2023-03-01T07:59:37;28.93;;;12.57;;
70420;SDS011;57848;51.938;15.520;2023-03-01T08:02:02;27.57;;;12.90;;
70420;SDS011;57848;51.938;15.520;2023-03-01T08:04:28;26.95;;;11.85;;
70420;SDS011;57848;51.938;15.520;2023-03-01T08:06:54;33.90;;;14.20;;
70420;SDS011;57848;51.938;15.520;2023-03-01T08:09:20;32.67;;;13.90;;
70420;SDS011;57848;51.938;15.520;2023-03-01T08:11:46;33.78;;;13.27;;
70420;SDS011;57848;51.938;15.520;2023-03-01T08:14:11;28.57;;;13.13;;
70420;SDS011;57848;51.938;15.520;2023-03-01T08:16:36;29.70;;;13.73;;
70420;SDS011;57848;51.938;15.520;2023-03-01T08:19:06;29.73;;;13.10;;
70420;SDS011;57848;51.938;15.520;2023-03-01T08:21:33;28.77;;;13.25;;
70420;SDS011;57848;51.938;15.520;2023-03-01T08:24:00;32.55;;;13.65;;
70420;SDS011;57848;51.938;15.520;2023-03-01T08:26:27;30.98;;;13.73;;
70420;SDS011;57848;51.938;15.520;2023-03-01T08:28:52;31.73;;;14.07;;
70420;SDS011;57848;51.938;15.520;2023-03-01T08:31:22;31.37;;;14.70;;
70420;SDS011;57848;51.938;15.520;2023-03-01T08:33:56;33.05;;;13.90;;
70420;SDS011;57848;51.938;15.520;2023-03-01T08:36:25;29.20;;;12.82;;
70420;SDS011;57848;51.938;15.520;2023-03-01T08:38:52;34.95;;;14.13;;
70420;SDS011;57848;51.938;15.520;2023-03-01T08:41:18;31.63;;;13.57;;
70420;SDS011;57848;51.938;15.520;2023-03-01T08:43:44;36.75;;;14.88;;
70420;SDS011;57848;51.938;15.520;2023-03-01T08:46:10;36.00;;;13.17;;
70420;SDS011;57848;51.938;15.520;2023-03-01T08:48:36;30.13;;;12.70;;
70420;SDS011;57848;51.938;15.520;2023-03-01T08:51:15;34.67;;;13.57;;
70420;SDS011;57848;51.938;15.520;2023-03-01T08:53:42;30.40;;;13.88;;
70420;SDS011;57848;51.938;15.520;2023-03-01T08:56:08;31.75;;;14.20;;
70420;SDS011;57848;51.938;15.520;2023-03-01T08:58:34;38.38;;;15.07;;
70420;SDS011;57848;51.938;15.520;2023-03-01T09:01:00;31.57;;;14.30;;
70420;SDS011;57848;51.938;15.520;2023-03-01T09:03:26;34.72;;;14.73;;
70420;SDS011;57848;51.938;15.520;2023-03-01T09:05:52;44.15;;;15.77;;
70420;SDS011;57848;51.938;15.520;2023-03-01T09:08:18;28.10;;;13.68;;
70420;SDS011;57848;51.938;15.520;2023-03-01T09:10:44;33.53;;;14.37;;
70420;SDS011;57848;51.938;15.520;2023-03-01T09:13:09;36.00;;;14.38;;
70420;SDS011;57848;51.938;15.520;2023-03-01T09:15:36;36.23;;;13.77;;
70420;SDS011;57848;51.938;15.520;2023-03-01T09:18:02;29.60;;;13.93;;
70420;SDS011;57848;51.938;15.520;2023-03-01T09:20:27;33.10;;;14.60;;
70420;SDS011;57848;51.938;15.520;2023-03-01T09:22:53;32.30;;;12.67;;
70420;SDS011;57848;51.938;15.520;2023-03-01T09:25:18;28.87;;;13.23;;
70420;SDS011;57848;51.938;15.520;2023-03-01T09:27:44;39.03;;;15.38;;
70420;SDS011;57848;51.938;15.520;2023-03-01T09:30:09;33.73;;;15.17;;
70420;SDS011;57848;51.938;15.520;2023-03-01T09:32:35;33.27;;;15.93;;
70420;SDS011;57848;51.938;15.520;2023-03-01T09:35:00;33.70;;;14.63;;
70420;SDS011;57848;51.938;15.520;2023-03-01T09:37:30;31.85;;;13.00;;
70420;SDS011;57848;51.938;15.520;2023-03-01T09:39:59;29.33;;;13.90;;
70420;SDS011;57848;51.938;15.520;2023-03-01T09:42:24;33.60;;;13.52;;
70420;SDS011;57848;51.938;15.520;2023-03-01T09:44:51;32.70;;;14.30;;
70420;SDS011;57848;51.938;15.520;2023-03-01T09:47:19;35.17;;;14.07;;
70420;SDS011;57848;51.938;15.520;2023-03-01T09:49:52;32.80;;;12.85;;
70420;SDS011;57848;51.938;15.520;2023-03-01T09:52:36;28.98;;;13.18;;
70420;SDS011;57848;51.938;15.520;2023-03-01T09:55:13;30.08;;;14.23;;
70420;SDS011;57848;51.938;15.520;2023-03-01T09:57:48;28.93;;;12.33;;
70420;SDS011;57848;51.938;15.520;2023-03-01T10:06:04;26.50;;;12.65;;
70420;SDS011;57848;51.938;15.520;2023-03-01T10:08:38;32.08;;;13.18;;
70420;SDS011;57848;51.938;15.520;2023-03-01T10:11:15;30.77;;;12.93;;
70420;SDS011;57848;51.938;15.520;2023-03-01T10:16:55;25.73;;;12.50;;
70420;SDS011;57848;51.938;15.520;2023-03-01T10:19:43;26.58;;;12.07;;
70420;SDS011;57848;51.938;15.520;2023-03-01T10:22:14;27.95;;;11.60;;
70420;SDS011;57848;51.938;15.520;2023-03-01T10:25:08;25.67;;;12.20;;
70420;SDS011;57848;51.938;15.520;2023-03-01T10:27:42;27.08;;;12.98;;
70420;SDS011;57848;51.938;15.520;2023-03-01T10:30:25;27.58;;;12.20;;
70420;SDS011;57848;51.938;15.520;2023-03-01T10:32:59;26.85;;;13.07;;
70420;SDS011;57848;51.938;15.520;2023-03-01T10:35:27;26.88;;;13.38;;
70420;SDS011;57848;51.938;15.520;2023-03-01T10:40:23;25.85;;;13.02;;
70420;SDS011;57848;51.938;15.520;2023-03-01T10:42:49;27.73;;;13.47;;
70420;SDS011;57848;51.938;15.520;2023-03-01T10:45:30;22.65;;;12.98;;
70420;SDS011;57848;51.938;15.520;2023-03-01T10:48:10;25.45;;;12.45;;
70420;SDS011;57848;51.938;15.520;2023-03-01T10:50:39;21.70;;;11.45;;
70420;SDS011;57848;51.938;15.520;2023-03-01T10:53:15;22.58;;;11.38;;
70420;SDS011;57848;51.938;15.520;2023-03-01T10:55:46;23.20;;;11.10;;
70420;SDS011;57848;51.938;15.520;2023-03-01T11:00:49;21.63;;;10.68;;
70420;SDS011;57848;51.938;15.520;2023-03-01T11:03:21;21.50;;;9.77;;
70420;SDS011;57848;51.938;15.520;2023-03-01T11:05:53;20.27;;;10.57;;
70420;SDS011;57848;51.938;15.520;2023-03-01T11:08:28;18.02;;;9.25;;
70420;SDS011;57848;51.938;15.520;2023-03-01T11:13:53;17.25;;;9.48;;
70420;SDS011;57848;51.938;15.520;2023-03-01T11:16:38;18.87;;;9.87;;
70420;SDS011;57848;51.938;15.520;2023-03-01T11:21:34;14.27;;;7.85;;
70420;SDS011;57848;51.938;15.520;2023-03-01T11:24:02;15.98;;;8.48;;
70420;SDS011;57848;51.938;15.520;2023-03-01T11:26:29;14.13;;;7.40;;
70420;SDS011;57848;51.938;15.520;2023-03-01T11:29:00;14.73;;;6.90;;
70420;SDS011;57848;51.938;15.520;2023-03-01T11:31:29;14.93;;;6.80;;
70420;SDS011;57848;51.938;15.520;2023-03-01T11:42:06;14.57;;;6.40;;
70420;SDS011;57848;51.938;15.520;2023-03-01T11:44:39;12.25;;;5.97;;
70420;SDS011;57848;51.938;15.520;2023-03-01T11:55:45;8.73;;;4.13;;
70420;SDS011;57848;51.938;15.520;2023-03-01T11:58:27;9.80;;;4.15;;
70420;SDS011;57848;51.938;15.520;2023-03-01T12:01:11;10.18;;;4.32;;
70420;SDS011;57848;51.938;15.520;2023-03-01T12:21:59;13.15;;;6.70;;
70420;SDS011;57848;51.938;15.520;2023-03-01T12:30:05;12.32;;;6.47;;
70420;SDS011;57848;51.938;15.520;2023-03-01T12:32:46;14.50;;;6.93;;
70420;SDS011;57848;51.938;15.520;2023-03-01T12:38:42;17.47;;;7.27;;
70420;SDS011;57848;51.938;15.520;2023-03-01T12:43:54;13.93;;;6.22;;
70420;SDS011;57848;51.938;15.520;2023-03-01T12:46:38;12.88;;;6.05;;
70420;SDS011;57848;51.938;15.520;2023-03-01T12:49:32;14.95;;;7.35;;
70420;SDS011;57848;51.938;15.520;2023-03-01T12:52:06;12.77;;;6.53;;
70420;SDS011;57848;51.938;15.520;2023-03-01T12:54:35;12.82;;;5.55;;
70420;SDS011;57848;51.938;15.520;2023-03-01T12:57:26;15.57;;;6.82;;
70420;SDS011;57848;51.938;15.520;2023-03-01T13:08:23;12.27;;;4.80;;
70420;SDS011;57848;51.938;15.520;2023-03-01T13:11:19;13.45;;;5.57;;
70420;SDS011;57848;51.938;15.520;2023-03-01T13:13:47;16.05;;;5.47;;
70420;SDS011;57848;51.938;15.520;2023-03-01T13:19:07;15.70;;;5.00;;
70420;SDS011;57848;51.938;15.520;2023-03-01T13:21:39;12.27;;;4.85;;
70420;SDS011;57848;51.938;15.520;2023-03-01T13:24:22;13.68;;;6.00;;
70420;SDS011;57848;51.938;15.520;2023-03-01T13:27:22;12.67;;;4.90;;
70420;SDS011;57848;51.938;15.520;2023-03-01T13:29:44;13.23;;;4.85;;
70420;SDS011;57848;51.938;15.520;2023-03-01T13:32:19;15.18;;;5.20;;
70420;SDS011;57848;51.938;15.520;2023-03-01T13:35:01;11.73;;;4.93;;
70420;SDS011;57848;51.938;15.520;2023-03-01T13:37:33;15.50;;;5.47;;
70420;SDS011;57848;51.938;15.520;2023-03-01T13:40:03;15.40;;;5.30;;
70420;SDS011;57848;51.938;15.520;2023-03-01T13:42:55;16.00;;;6.45;;
70420;SDS011;57848;51.938;15.520;2023-03-01T13:47:58;16.27;;;6.55;;
70420;SDS011;57848;51.938;15.520;2023-03-01T13:50:28;15.73;;;6.78;;
70420;SDS011;57848;51.938;15.520;2023-03-01T13:53:02;15.20;;;5.57;;
70420;SDS011;57848;51.938;15.520;2023-03-01T13:55:48;16.27;;;5.82;;
70420;SDS011;57848;51.938;15.520;2023-03-01T13:58:23;13.43;;;4.90;;
70420;SDS011;57848;51.938;15.520;2023-03-01T14:03:22;14.60;;;5.82;;
70420;SDS011;57848;51.938;15.520;2023-03-01T14:06:08;13.20;;;5.90;;
70420;SDS011;57848;51.938;15.520;2023-03-01T14:08:37;14.55;;;7.15;;
70420;SDS011;57848;51.938;15.520;2023-03-01T14:19:25;13.50;;;6.28;;
70420;SDS011;57848;51.938;15.520;2023-03-01T14:22:16;14.63;;;5.65;;
70420;SDS011;57848;51.938;15.520;2023-03-01T14:24:52;11.95;;;4.82;;
70420;SDS011;57848;51.938;15.520;2023-03-01T14:27:21;10.70;;;4.20;;
70420;SDS011;57848;51.938;15.520;2023-03-01T14:29:55;15.10;;;5.30;;
70420;SDS011;57848;51.938;15.520;2023-03-01T14:32:24;15.73;;;5.93;;
70420;SDS011;57848;51.938;15.520;2023-03-01T14:34:50;13.25;;;5.60;;
70420;SDS011;57848;51.938;15.520;2023-03-01T14:39:53;15.97;;;5.10;;
70420;SDS011;57848;51.938;15.520;2023-03-01T14:42:22;11.07;;;4.38;;
70420;SDS011;57848;51.938;15.520;2023-03-01T14:44:51;11.70;;;4.63;;
70420;SDS011;57848;51.938;15.520;2023-03-01T14:47:28;12.85;;;4.53;;
70420;SDS011;57848;51.938;15.520;2023-03-01T14:49:58;11.13;;;4.65;;
70420;SDS011;57848;51.938;15.520;2023-03-01T14:52:31;13.43;;;5.30;;
70420;SDS011;57848;51.938;15.520;2023-03-01T14:55:03;14.20;;;4.97;;
70420;SDS011;57848;51.938;15.520;2023-03-01T14:57:30;11.70;;;5.25;;
70420;SDS011;57848;51.938;15.520;2023-03-01T15:00:00;19.55;;;6.30;;
70420;SDS011;57848;51.938;15.520;2023-03-01T15:02:30;12.67;;;5.10;;
70420;SDS011;57848;51.938;15.520;2023-03-01T15:04:57;15.32;;;7.78;;
70420;SDS011;57848;51.938;15.520;2023-03-01T15:07:26;20.98;;;11.40;;
70420;SDS011;57848;51.938;15.520;2023-03-01T15:09:55;16.40;;;6.13;;
70420;SDS011;57848;51.938;15.520;2023-03-01T15:14:53;12.53;;;5.37;;
70420;SDS011;57848;51.938;15.520;2023-03-01T15:17:20;13.00;;;5.10;;
70420;SDS011;57848;51.938;15.520;2023-03-01T15:19:46;17.88;;;6.72;;
70420;SDS011;57848;51.938;15.520;2023-03-01T15:22:14;17.50;;;6.10;;
70420;SDS011;57848;51.938;15.520;2023-03-01T15:24:41;15.18;;;5.43;;
70420;SDS011;57848;51.938;15.520;2023-03-01T15:27:15;15.13;;;5.33;;
70420;SDS011;57848;51.938;15.520;2023-03-01T15:29:47;14.40;;;5.97;;
70420;SDS011;57848;51.938;15.520;2023-03-01T15:32:25;15.23;;;5.22;;
70420;SDS011;57848;51.938;15.520;2023-03-01T15:34:57;13.18;;;4.82;;
70420;SDS011;57848;51.938;15.520;2023-03-01T15:37:40;15.80;;;5.38;;
70420;SDS011;57848;51.938;15.520;2023-03-01T15:42:48;16.67;;;5.78;;
70420;SDS011;57848;51.938;15.520;2023-03-01T15:47:41;13.93;;;6.78;;
70420;SDS011;57848;51.938;15.520;2023-03-01T15:50:23;13.98;;;6.20;;
70420;SDS011;57848;51.938;15.520;2023-03-01T15:52:52;14.57;;;6.43;;
70420;SDS011;57848;51.938;15.520;2023-03-01T15:55:20;16.25;;;6.85;;
70420;SDS011;57848;51.938;15.520;2023-03-01T15:57:47;15.13;;;6.30;;
70420;SDS011;57848;51.938;15.520;2023-03-01T16:00:13;15.85;;;5.85;;
70420;SDS011;57848;51.938;15.520;2023-03-01T16:02:40;13.13;;;5.55;;
70420;SDS011;57848;51.938;15.520;2023-03-01T16:05:15;15.85;;;6.78;;
70420;SDS011;57848;51.938;15.520;2023-03-01T16:07:42;15.73;;;6.45;;
70420;SDS011;57848;51.938;15.520;2023-03-01T16:10:07;19.20;;;7.47;;
70420;SDS011;57848;51.938;15.520;2023-03-01T16:12:33;24.17;;;8.33;;
70420;SDS011;57848;51.938;15.520;2023-03-01T16:14:58;17.97;;;7.90;;
70420;SDS011;57848;51.938;15.520;2023-03-01T16:17:24;20.00;;;7.73;;
70420;SDS011;57848;51.938;15.520;2023-03-01T16:19:50;19.20;;;7.85;;